createdAt,value
2023-01-25T00:02:42.672Z,1.15
2023-01-25T00:05:56.832Z,1.19
2023-01-25T00:09:08.973Z,1.14
2023-01-25T00:12:20.933Z,1.14
2023-01-25T00:15:33.057Z,1.12
2023-01-25T00:18:45.197Z,1.17
2023-01-25T00:21:57.658Z,1.10
2023-01-25T00:25:10.786Z,1.22
2023-01-25T00:28:22.971Z,1.21
2023-01-25T00:31:48.631Z,1.22
2023-01-25T00:35:01.234Z,1.22
2023-01-25T00:38:20.838Z,1.26
2023-01-25T00:41:33.121Z,1.29
2023-01-25T00:44:45.741Z,1.32
2023-01-25T00:48:00.497Z,1.29
2023-01-25T00:51:24.808Z,1.26
2023-01-25T00:54:37.077Z,1.25
2023-01-25T00:57:49.034Z,1.30
2023-01-25T01:01:02.087Z,1.31
2023-01-25T01:04:15.380Z,1.27
2023-01-25T01:07:27.463Z,1.30
2023-01-25T01:10:39.635Z,1.31
2023-01-25T01:13:51.884Z,1.33
2023-01-25T01:17:03.797Z,1.37
2023-01-25T01:20:18.467Z,1.45
2023-01-25T01:23:30.544Z,1.50
2023-01-25T01:26:42.642Z,1.51
2023-01-25T01:29:54.556Z,1.51
2023-01-25T01:33:06.548Z,1.51
2023-01-25T01:36:23.375Z,1.39
2023-01-25T01:39:35.676Z,1.33
2023-01-25T01:43:05.424Z,1.38
2023-01-25T01:46:26.859Z,1.31
2023-01-25T01:49:41.165Z,1.34
2023-01-25T01:52:55.967Z,1.36
2023-01-25T01:56:12.840Z,1.38
2023-01-25T01:59:23.759Z,1.40
2023-01-25T02:02:35.797Z,1.41
2023-01-25T02:05:54.383Z,1.43
2023-01-25T02:09:07.919Z,1.47
2023-01-25T02:12:21.575Z,1.48
2023-01-25T02:15:43.192Z,1.50
2023-01-25T02:18:55.657Z,1.48
2023-01-25T02:22:10.461Z,1.49
2023-01-25T02:25:23.801Z,1.43
2023-01-25T02:28:40.917Z,1.37
2023-01-25T02:31:53.634Z,1.27
2023-01-25T02:35:06.083Z,1.33
2023-01-25T02:38:22.043Z,1.30
2023-01-25T02:41:41.049Z,1.35
2023-01-25T02:44:54.941Z,1.27
2023-01-25T02:48:09.434Z,1.31
2023-01-25T02:51:21.887Z,1.21
2023-01-25T02:54:33.947Z,1.27
2023-01-25T02:57:46.765Z,1.28
2023-01-25T03:01:01.746Z,1.26
2023-01-25T03:04:15.251Z,1.29
2023-01-25T03:07:27.492Z,1.29
2023-01-25T03:10:40.600Z,1.37
2023-01-25T03:13:52.909Z,1.27
2023-01-25T03:17:05.144Z,1.18
2023-01-25T03:20:19.778Z,1.16
2023-01-25T03:23:32.206Z,1.24
2023-01-25T03:26:55.891Z,1.27
2023-01-25T03:30:11.774Z,1.28
2023-01-25T03:33:24.020Z,1.20
2023-01-25T03:36:36.298Z,1.14
2023-01-25T03:39:48.695Z,1.10
2023-01-25T03:43:01.612Z,1.19
2023-01-25T03:46:14.847Z,1.19
2023-01-25T03:49:28.102Z,1.13
2023-01-25T03:52:42.331Z,1.15
2023-01-25T03:55:54.441Z,1.19
2023-01-25T03:59:09.403Z,1.08
2023-01-25T04:02:22.131Z,1.07
2023-01-25T04:05:34.598Z,1.07
2023-01-25T04:08:47.276Z,1.08
2023-01-25T04:11:59.567Z,1.07
2023-01-25T04:15:14.745Z,1.10
2023-01-25T04:18:27.048Z,1.11
2023-01-25T04:21:40.201Z,1.03
2023-01-25T04:24:53.005Z,1.02
2023-01-25T04:28:05.528Z,1.00
2023-01-25T04:31:17.925Z,1.02
2023-01-25T04:34:30.289Z,1.03
2023-01-25T04:37:42.865Z,0.96
2023-01-25T04:40:55.096Z,0.93
2023-01-25T04:44:07.981Z,0.91
2023-01-25T04:47:21.833Z,0.86
2023-01-25T04:50:34.785Z,0.81
2023-01-25T04:53:47.468Z,0.80
2023-01-25T04:57:02.033Z,0.88
2023-01-25T05:00:17.854Z,0.83
2023-01-25T05:03:30.529Z,0.83
2023-01-25T05:06:43.253Z,0.87
2023-01-25T05:09:57.308Z,0.91
2023-01-25T05:13:09.667Z,0.84
2023-01-25T05:16:22.180Z,0.87
2023-01-25T05:19:34.391Z,0.83
2023-01-25T05:22:48.335Z,0.86
2023-01-25T05:26:15.346Z,0.85
2023-01-25T05:29:27.864Z,0.82
2023-01-25T05:32:42.104Z,0.81
2023-01-25T05:35:54.213Z,0.88
2023-01-25T05:39:06.624Z,0.96
2023-01-25T05:42:22.304Z,1.00
2023-01-25T05:45:34.712Z,1.07
2023-01-25T05:48:47.848Z,1.12
2023-01-25T05:52:00.273Z,1.08
2023-01-25T05:55:15.711Z,1.06
2023-01-25T05:58:28.264Z,1.06
2023-01-25T06:01:40.774Z,1.08
2023-01-25T06:04:53.471Z,1.14
2023-01-25T06:08:06.148Z,1.20
2023-01-25T06:11:22.720Z,1.25
2023-01-25T06:14:35.654Z,1.27
2023-01-25T06:17:49.176Z,1.30
2023-01-25T06:21:20.377Z,1.32
2023-01-25T06:24:32.601Z,1.28
2023-01-25T06:27:44.665Z,1.33
2023-01-25T06:30:57.121Z,1.31
2023-01-25T06:34:10.161Z,1.34
2023-01-25T06:37:23.055Z,1.29
2023-01-25T06:40:36.017Z,1.29
2023-01-25T06:43:48.222Z,1.30
2023-01-25T06:47:00.958Z,1.27
2023-01-25T06:50:15.557Z,1.32
2023-01-25T06:53:28.481Z,1.33
2023-01-25T06:56:40.645Z,1.34
2023-01-25T06:59:52.739Z,1.31
2023-01-25T07:03:04.664Z,1.31
2023-01-25T07:06:17.500Z,1.31
2023-01-25T07:09:29.670Z,1.32
2023-01-25T07:12:41.627Z,1.36
2023-01-25T07:16:00.550Z,1.38
2023-01-25T07:19:15.650Z,1.39
2023-01-25T07:22:27.820Z,1.37
2023-01-25T07:25:40.236Z,1.39
2023-01-25T07:28:53.501Z,1.41
2023-01-25T07:32:06.772Z,1.31
2023-01-25T07:35:19.236Z,1.24
2023-01-25T07:38:31.467Z,1.31
2023-01-25T07:41:43.868Z,1.36
2023-01-25T07:44:58.802Z,1.39
2023-01-25T07:48:15.711Z,1.30
2023-01-25T07:51:28.016Z,1.42
2023-01-25T07:54:40.554Z,1.37
2023-01-25T07:57:53.145Z,1.40
2023-01-25T08:01:14.185Z,1.38
2023-01-25T08:04:26.572Z,1.34
2023-01-25T08:07:38.709Z,1.41
2023-01-25T08:10:50.790Z,1.41
2023-01-25T08:14:03.682Z,1.38
2023-01-25T08:17:15.715Z,1.44
2023-01-25T08:20:27.910Z,1.45
2023-01-25T08:23:39.989Z,1.55
2023-01-25T08:26:52.114Z,1.63
2023-01-25T08:30:04.019Z,1.68
2023-01-25T08:33:16.467Z,1.56
2023-01-25T08:36:29.679Z,1.67
2023-01-25T08:39:42.094Z,1.71
2023-01-25T08:42:54.300Z,1.80
2023-01-25T08:46:06.609Z,1.69
2023-01-25T08:49:18.695Z,1.64
2023-01-25T08:52:30.837Z,1.64
2023-01-25T08:55:45.049Z,1.64
2023-01-25T08:58:57.646Z,1.74
2023-01-25T09:02:09.925Z,1.78
2023-01-25T09:05:22.233Z,1.75
2023-01-25T09:08:34.293Z,1.88
2023-01-25T09:11:46.242Z,1.93
2023-01-25T09:14:59.009Z,1.98
2023-01-25T09:18:11.539Z,2.06
2023-01-25T09:21:24.866Z,2.11
2023-01-25T09:24:37.519Z,2.11
2023-01-25T09:27:49.693Z,2.27
2023-01-25T09:31:21.139Z,2.44
2023-01-25T09:34:29.249Z,2.45
2023-01-25T09:37:41.172Z,2.50
2023-01-25T09:41:02.568Z,2.67
2023-01-25T09:44:34.446Z,2.79
2023-01-25T09:47:55.889Z,2.73
2023-01-25T09:51:25.481Z,2.59
2023-01-25T09:54:48.206Z,2.63
2023-01-25T09:57:59.979Z,2.53
2023-01-25T10:01:38.165Z,2.57
2023-01-25T10:04:47.293Z,2.57
2023-01-25T10:08:05.216Z,2.57
2023-01-25T10:11:26.071Z,2.59
2023-01-25T10:14:38.053Z,2.54
2023-01-25T10:17:50.653Z,2.54
2023-01-25T10:21:07.509Z,2.56
2023-01-25T10:24:44.905Z,2.61
2023-01-25T10:28:12.858Z,2.43
2023-01-25T10:31:31.704Z,2.63
2023-01-25T10:34:56.690Z,2.62
2023-01-25T10:38:09.584Z,2.63
2023-01-25T10:41:28.502Z,2.66
2023-01-25T10:44:42.015Z,2.69
2023-01-25T10:48:01.470Z,2.71
2023-01-25T10:51:13.921Z,2.75
2023-01-25T10:54:30.188Z,2.71
2023-01-25T10:57:44.505Z,2.75
2023-01-25T11:00:58.731Z,2.75
2023-01-25T11:04:18.979Z,2.83
2023-01-25T11:07:35.607Z,2.78
2023-01-25T11:10:51.448Z,2.82
2023-01-25T11:14:06.137Z,2.85
2023-01-25T11:17:30.498Z,2.92
2023-01-25T11:20:42.697Z,2.88
2023-01-25T11:24:23.071Z,2.89
2023-01-25T11:27:35.547Z,2.82
2023-01-25T11:30:48.099Z,2.91
2023-01-25T11:34:00.376Z,2.94
2023-01-25T11:37:50.374Z,2.86
2023-01-25T11:41:09.153Z,2.85
2023-01-25T11:44:41.844Z,2.89
2023-01-25T11:48:08.573Z,2.83
2023-01-25T11:51:25.613Z,2.93
2023-01-25T11:54:55.773Z,2.99
2023-01-25T11:58:36.923Z,2.94
2023-01-25T12:02:00.394Z,2.90
2023-01-25T12:05:34.849Z,2.89
2023-01-25T12:09:19.212Z,2.83
2023-01-25T12:12:44.759Z,2.87
2023-01-25T12:16:20.256Z,2.89
2023-01-25T12:19:54.453Z,2.90
2023-01-25T12:23:21.715Z,2.91
2023-01-25T12:26:41.199Z,2.79
2023-01-25T12:29:59.144Z,2.81
2023-01-25T12:33:17.492Z,2.83
2023-01-25T12:36:35.842Z,2.80
2023-01-25T12:39:54.765Z,2.85
2023-01-25T12:43:07.743Z,2.85
2023-01-25T12:46:26.462Z,2.83
2023-01-25T12:49:44.536Z,2.86
2023-01-25T12:53:01.909Z,2.78
2023-01-25T12:56:18.915Z,2.78
2023-01-25T12:59:40.479Z,2.75
2023-01-25T13:03:14.732Z,2.77
2023-01-25T13:06:33.295Z,2.81
2023-01-25T13:09:52.359Z,2.73
2023-01-25T13:13:08.213Z,2.61
2023-01-25T13:16:51.851Z,2.63
2023-01-25T13:20:05.779Z,2.62
2023-01-25T13:23:37.826Z,2.64
2023-01-25T13:27:09.072Z,2.71
2023-01-25T13:30:40.188Z,2.68
2023-01-25T13:33:52.423Z,2.64
2023-01-25T13:37:04.551Z,2.62
2023-01-25T13:40:35.792Z,2.65
2023-01-25T13:43:55.144Z,2.70
2023-01-25T13:47:10.844Z,2.64
2023-01-25T13:50:29.590Z,2.60
2023-01-25T13:53:45.493Z,2.58
2023-01-25T13:57:12.829Z,2.56
2023-01-25T14:00:28.257Z,2.48
2023-01-25T14:03:45.868Z,2.51
2023-01-25T14:07:06.167Z,2.45
2023-01-25T14:10:27.875Z,2.36
2023-01-25T14:13:40.205Z,2.32
2023-01-25T14:16:55.336Z,2.34
2023-01-25T14:20:10.618Z,2.33
2023-01-25T14:23:32.732Z,2.27
2023-01-25T14:26:47.787Z,2.30
2023-01-25T14:30:00.477Z,2.25
2023-01-25T14:33:24.596Z,2.24
2023-01-25T14:36:38.530Z,2.24
2023-01-25T14:39:52.142Z,2.20
2023-01-25T14:43:05.504Z,2.13
2023-01-25T14:46:36.396Z,2.14
2023-01-25T14:49:48.706Z,2.17
2023-01-25T14:53:01.271Z,2.13
2023-01-25T14:56:24.307Z,2.12
2023-01-25T14:59:42.552Z,2.09
2023-01-25T15:02:58.064Z,2.05
2023-01-25T15:06:12.395Z,2.03
2023-01-25T15:10:01.087Z,2.05
2023-01-25T15:13:27.544Z,2.07
2023-01-25T15:16:43.373Z,2.05
2023-01-25T15:20:01.273Z,1.88
2023-01-25T15:23:28.673Z,1.84
2023-01-25T15:26:42.086Z,1.82
2023-01-25T15:29:54.855Z,1.87
2023-01-25T15:33:08.533Z,1.88
2023-01-25T15:36:21.638Z,1.95
2023-01-25T15:39:35.155Z,1.89
2023-01-25T15:42:47.485Z,1.94
2023-01-25T15:46:00.750Z,1.92
2023-01-25T15:49:15.071Z,1.94
2023-01-25T15:52:27.385Z,1.96
2023-01-25T15:55:41.131Z,1.92
2023-01-25T15:58:57.939Z,1.88
2023-01-25T16:02:10.208Z,1.91
2023-01-25T16:05:22.915Z,1.92
2023-01-25T16:08:35.533Z,1.92
2023-01-25T16:11:51.145Z,1.91
2023-01-25T16:15:03.432Z,1.85
2023-01-25T16:18:20.375Z,1.81
2023-01-25T16:21:31.892Z,1.76
2023-01-25T16:24:43.991Z,1.77
2023-01-25T16:27:56.730Z,1.75
2023-01-25T16:31:09.792Z,1.74
2023-01-25T16:34:23.849Z,1.74
2023-01-25T16:37:37.317Z,1.70
2023-01-25T16:40:49.585Z,1.66
2023-01-25T16:44:02.061Z,1.62
2023-01-25T16:47:18.204Z,1.60
2023-01-25T16:50:31.061Z,1.57
2023-01-25T16:53:43.115Z,1.66
2023-01-25T16:56:56.805Z,1.67
2023-01-25T17:00:10.657Z,1.63
2023-01-25T17:03:23.463Z,1.66
2023-01-25T17:06:38.532Z,1.75
2023-01-25T17:09:50.867Z,1.72
2023-01-25T17:13:03.186Z,1.65
2023-01-25T17:16:15.715Z,1.67
2023-01-25T17:19:28.516Z,1.73
2023-01-25T17:22:42.109Z,1.78
2023-01-25T17:25:54.436Z,1.78
2023-01-25T17:29:07.620Z,1.73
2023-01-25T17:32:19.575Z,1.76
2023-01-25T17:35:31.582Z,1.73
2023-01-25T17:38:43.984Z,1.71
2023-01-25T17:41:57.371Z,1.69
2023-01-25T17:45:11.134Z,1.68
2023-01-25T17:48:23.402Z,1.72
2023-01-25T17:51:36.706Z,1.70
2023-01-25T17:54:48.759Z,1.69
2023-01-25T17:58:00.803Z,1.67
2023-01-25T18:01:20.100Z,1.67
2023-01-25T18:04:32.172Z,1.64
2023-01-25T18:07:45.212Z,1.58
2023-01-25T18:10:57.509Z,1.56
2023-01-25T18:14:12.805Z,1.55
2023-01-25T18:17:25.613Z,1.63
2023-01-25T18:20:37.633Z,1.60
2023-01-25T18:23:53.036Z,1.59
2023-01-25T18:27:11.045Z,1.53
2023-01-25T18:30:37.043Z,1.52
2023-01-25T18:33:49.280Z,1.47
2023-01-25T18:37:02.107Z,1.50
2023-01-25T18:40:19.047Z,1.50
2023-01-25T18:43:29.594Z,1.54
2023-01-25T18:46:43.306Z,1.54
2023-01-25T18:49:57.343Z,1.53
2023-01-25T18:53:09.400Z,1.50
2023-01-25T18:56:23.843Z,1.50
2023-01-25T18:59:36.276Z,1.46
2023-01-25T19:02:48.632Z,1.47
2023-01-25T19:06:01.389Z,1.46
2023-01-25T19:09:13.431Z,1.49
2023-01-25T19:12:25.599Z,1.51
2023-01-25T19:15:37.694Z,1.52
2023-01-25T19:18:53.172Z,1.45
2023-01-25T19:22:06.766Z,1.45
2023-01-25T19:25:19.538Z,1.46
2023-01-25T19:28:32.775Z,1.41
2023-01-25T19:31:45.576Z,1.34
2023-01-25T19:34:58.720Z,1.25
2023-01-25T19:38:10.925Z,1.21
2023-01-25T19:41:25.191Z,1.24
2023-01-25T19:44:37.320Z,1.14
2023-01-25T19:47:49.490Z,1.10
2023-01-25T19:51:11.861Z,1.12
2023-01-25T19:54:25.127Z,1.08
2023-01-25T19:57:38.400Z,1.10
2023-01-25T20:00:50.549Z,1.12
2023-01-25T20:04:05.995Z,1.16
2023-01-25T20:07:18.802Z,1.26
2023-01-25T20:10:30.899Z,1.27
2023-01-25T20:13:43.538Z,1.32
2023-01-25T20:16:56.061Z,1.37
2023-01-25T20:20:08.603Z,1.34
2023-01-25T20:23:20.549Z,1.32
2023-01-25T20:26:36.643Z,1.27
2023-01-25T20:29:49.185Z,1.29
2023-01-25T20:33:01.083Z,1.31
2023-01-25T20:36:14.745Z,1.29
2023-01-25T20:39:28.148Z,1.17
2023-01-25T20:42:47.634Z,1.05
2023-01-25T20:46:01.986Z,1.12
2023-01-25T20:49:17.995Z,1.12
2023-01-25T20:52:30.194Z,1.17
2023-01-25T20:55:42.489Z,1.12
2023-01-25T20:58:55.229Z,1.03
2023-01-25T21:02:07.538Z,1.02
2023-01-25T21:05:20.022Z,1.08
2023-01-25T21:08:36.226Z,1.09
2023-01-25T21:11:48.886Z,1.08
2023-01-25T21:15:01.249Z,1.12
2023-01-25T21:18:14.502Z,1.13
2023-01-25T21:21:30.004Z,1.06
2023-01-25T21:24:43.204Z,0.83
2023-01-25T21:27:55.725Z,0.87
2023-01-25T21:31:15.496Z,0.88
2023-01-25T21:34:28.352Z,0.96
2023-01-25T21:37:40.852Z,0.99
2023-01-25T21:40:53.259Z,1.02
2023-01-25T21:44:21.436Z,1.03
2023-01-25T21:47:35.491Z,1.03
2023-01-25T21:51:02.458Z,0.99
2023-01-25T21:54:14.956Z,0.98
2023-01-25T21:57:27.058Z,0.99
2023-01-25T22:00:39.669Z,0.96
2023-01-25T22:03:55.151Z,0.79
2023-01-25T22:07:08.009Z,0.86
2023-01-25T22:10:20.921Z,0.91
2023-01-25T22:13:34.876Z,0.83
2023-01-25T22:16:47.251Z,0.84
2023-01-25T22:19:59.312Z,0.86
2023-01-25T22:23:11.425Z,0.94
2023-01-25T22:26:26.994Z,0.97
2023-01-25T22:29:40.270Z,0.97
2023-01-25T22:32:52.313Z,0.95
2023-01-25T22:36:04.795Z,0.88
2023-01-25T22:39:19.269Z,0.91
2023-01-25T22:42:31.814Z,0.86
2023-01-25T22:45:43.959Z,0.88
2023-01-25T22:48:56.561Z,0.85
2023-01-25T22:52:08.895Z,0.86
2023-01-25T22:55:21.627Z,0.82
2023-01-25T22:58:33.932Z,0.88
2023-01-25T23:01:46.022Z,0.88
2023-01-25T23:04:58.236Z,0.87
2023-01-25T23:08:11.040Z,0.82
2023-01-25T23:11:26.343Z,0.84
2023-01-25T23:14:59.139Z,0.81
2023-01-25T23:18:26.790Z,0.84
2023-01-25T23:21:39.935Z,0.83
2023-01-25T23:24:52.040Z,0.85
2023-01-25T23:28:04.250Z,0.84
2023-01-25T23:31:21.914Z,0.76
2023-01-25T23:34:35.099Z,0.69
2023-01-25T23:37:47.314Z,0.75
2023-01-25T23:40:59.204Z,0.74
2023-01-25T23:44:14.260Z,0.74
2023-01-25T23:47:26.127Z,0.74
2023-01-25T23:50:38.172Z,0.69
2023-01-25T23:53:50.952Z,0.72
2023-01-25T23:57:02.997Z,0.69
